createdAt,value
2023-04-10T00:02:55.347Z,5.15
2023-04-10T00:07:58.347Z,5.02
2023-04-10T00:13:03.615Z,4.88
2023-04-10T00:18:06.628Z,4.74
2023-04-10T00:23:09.861Z,4.63
2023-04-10T00:28:12.826Z,4.55
2023-04-10T00:33:16.044Z,4.46
2023-04-10T00:38:19.048Z,4.35
2023-04-10T00:43:22.363Z,4.30
2023-04-10T00:48:26.361Z,4.29
2023-04-10T00:53:30.043Z,4.30
2023-04-10T00:58:33.018Z,4.28
2023-04-10T01:03:37.349Z,4.21
2023-04-10T01:09:06.406Z,4.15
2023-04-10T01:14:09.274Z,4.07
2023-04-10T01:19:12.285Z,3.98
2023-04-10T01:24:24.989Z,3.88
2023-04-10T01:29:31.060Z,3.81
2023-04-10T01:34:45.151Z,3.82
2023-04-10T01:39:54.584Z,3.86
2023-04-10T01:44:58.769Z,3.92
2023-04-10T01:50:03.707Z,3.96
2023-04-10T01:55:08.839Z,3.98
2023-04-10T02:00:12.962Z,3.97
2023-04-10T02:05:16.988Z,3.90
2023-04-10T02:10:31.655Z,3.85
2023-04-10T02:15:36.630Z,3.81
2023-04-10T02:20:39.671Z,3.84
2023-04-10T02:25:42.581Z,3.87
2023-04-10T02:30:45.778Z,3.88
2023-04-10T02:35:48.819Z,3.88
2023-04-10T02:40:51.788Z,3.95
2023-04-10T02:45:55.110Z,4.05
2023-04-10T02:50:58.722Z,4.09
2023-04-10T02:56:02.638Z,4.08
2023-04-10T03:01:09.345Z,4.02
2023-04-10T03:06:12.462Z,4.01
2023-04-10T03:11:15.563Z,4.01
2023-04-10T03:16:19.076Z,3.97
2023-04-10T03:21:22.297Z,3.88
2023-04-10T03:26:25.608Z,3.81
2023-04-10T03:31:29.752Z,3.73
2023-04-10T03:36:32.748Z,3.63
2023-04-10T03:41:35.649Z,3.53
2023-04-10T03:46:38.632Z,3.45
2023-04-10T03:51:41.564Z,3.35
2023-04-10T03:56:44.463Z,3.25
2023-04-10T04:01:47.438Z,3.15
2023-04-10T04:06:50.474Z,3.16
2023-04-10T04:11:53.381Z,3.38
2023-04-10T04:16:56.346Z,3.79
2023-04-10T04:22:00.596Z,4.33
2023-04-10T04:27:03.833Z,5.01
2023-04-10T04:32:06.766Z,5.64
2023-04-10T04:37:09.761Z,6.50
2023-04-10T04:42:12.955Z,7.34
2023-04-10T04:47:15.860Z,8.24
2023-04-10T04:52:18.764Z,8.98
2023-04-10T04:57:21.877Z,9.74
2023-04-10T05:02:25.088Z,10.39
2023-04-10T05:07:28.088Z,10.85
2023-04-10T05:12:31.402Z,11.41
2023-04-10T05:17:34.480Z,12.01
2023-04-10T05:22:37.515Z,12.22
2023-04-10T05:27:40.527Z,12.53
2023-04-10T05:32:43.498Z,12.66
2023-04-10T05:37:46.437Z,12.97
2023-04-10T05:42:49.344Z,13.40
2023-04-10T05:47:52.367Z,13.67
2023-04-10T05:52:55.439Z,14.03
2023-04-10T05:57:58.469Z,14.55
2023-04-10T06:03:01.837Z,14.82
2023-04-10T06:08:05.194Z,14.96
2023-04-10T06:13:10.577Z,15.17
2023-04-10T06:18:14.171Z,15.32
2023-04-10T06:23:17.286Z,15.35
2023-04-10T06:28:20.409Z,15.27
2023-04-10T06:33:26.164Z,15.39
2023-04-10T06:38:29.753Z,15.76
2023-04-10T06:43:36.953Z,16.11
2023-04-10T06:48:39.922Z,16.47
2023-04-10T06:53:43.017Z,16.69
2023-04-10T06:58:46.121Z,16.98
2023-04-10T07:03:49.082Z,17.18
2023-04-10T07:08:52.304Z,17.21
2023-04-10T07:13:58.683Z,17.42
2023-04-10T07:19:01.744Z,17.68
2023-04-10T07:24:04.758Z,17.92
2023-04-10T07:29:08.044Z,18.25
2023-04-10T07:34:12.114Z,18.69
2023-04-10T07:39:15.093Z,19.13
2023-04-10T07:44:18.772Z,19.38
2023-04-10T07:49:21.919Z,19.74
2023-04-10T07:54:24.938Z,19.97
2023-04-10T07:59:29.055Z,19.93
2023-04-10T08:04:32.425Z,19.80
2023-04-10T08:09:35.995Z,19.88
2023-04-10T08:14:38.991Z,19.80
2023-04-10T08:19:43.378Z,19.86
2023-04-10T08:24:46.545Z,20.04
2023-04-10T08:29:52.153Z,20.36
2023-04-10T08:34:56.690Z,20.57
2023-04-10T08:40:04.706Z,20.81
2023-04-10T08:45:11.453Z,20.42
2023-04-10T08:50:18.066Z,19.31
2023-04-10T08:55:21.989Z,18.08
2023-04-10T09:00:26.081Z,17.26
2023-04-10T09:05:30.372Z,16.82
2023-04-10T09:10:33.362Z,16.39
2023-04-10T09:15:55.690Z,16.03
2023-04-10T09:21:07.303Z,15.71
2023-04-10T09:26:23.088Z,15.63
2023-04-10T09:31:29.790Z,15.59
2023-04-10T09:36:32.960Z,15.43
2023-04-10T09:41:48.026Z,15.33
2023-04-10T09:46:51.589Z,15.44
2023-04-10T09:51:54.653Z,15.57
2023-04-10T09:56:58.658Z,15.44
2023-04-10T10:02:02.737Z,15.31
2023-04-10T10:07:06.447Z,15.52
2023-04-10T10:12:11.878Z,15.76
2023-04-10T10:17:18.641Z,15.74
2023-04-10T10:22:25.918Z,15.81
2023-04-10T10:27:35.190Z,15.94
2023-04-10T10:32:38.406Z,16.04
2023-04-10T10:37:42.925Z,16.07
2023-04-10T10:43:01.932Z,16.13
2023-04-10T10:48:05.050Z,16.09
2023-04-10T10:53:08.144Z,16.34
2023-04-10T10:58:11.760Z,16.56
2023-04-10T11:03:14.811Z,16.67
2023-04-10T11:08:18.639Z,16.69
2023-04-10T11:13:21.990Z,16.64
2023-04-10T11:18:51.156Z,16.62
2023-04-10T11:23:59.572Z,16.70
2023-04-10T11:29:03.467Z,16.91
2023-04-10T11:34:15.896Z,16.95
2023-04-10T11:39:20.545Z,17.12
2023-04-10T11:44:39.727Z,17.30
2023-04-10T11:49:42.936Z,17.39
2023-04-10T11:54:49.523Z,17.62
2023-04-10T11:59:52.631Z,17.64
2023-04-10T12:04:59.568Z,17.28
2023-04-10T12:10:02.665Z,16.92
2023-04-10T12:15:29.141Z,16.95
2023-04-10T12:20:32.306Z,16.79
2023-04-10T12:25:35.725Z,16.58
2023-04-10T12:30:45.999Z,16.33
2023-04-10T12:35:48.937Z,16.30
2023-04-10T12:40:59.376Z,16.49
2023-04-10T12:46:03.558Z,16.61
2023-04-10T12:51:07.252Z,16.97
2023-04-10T12:56:10.253Z,17.40
2023-04-10T13:01:14.953Z,17.61
2023-04-10T13:06:18.323Z,17.72
2023-04-10T13:11:22.857Z,18.09
2023-04-10T13:16:26.113Z,18.42
2023-04-10T13:21:29.792Z,18.52
2023-04-10T13:26:32.798Z,18.59
2023-04-10T13:31:35.956Z,18.60
2023-04-10T13:36:39.285Z,18.61
2023-04-10T13:41:42.326Z,18.43
2023-04-10T13:46:45.455Z,18.47
2023-04-10T13:51:48.583Z,18.60
2023-04-10T13:56:51.663Z,18.49
2023-04-10T14:01:54.663Z,18.33
2023-04-10T14:07:00.641Z,18.32
2023-04-10T14:12:03.854Z,18.19
2023-04-10T14:17:06.961Z,18.04
2023-04-10T14:22:09.867Z,17.86
2023-04-10T14:27:13.604Z,17.89
2023-04-10T14:32:16.726Z,17.93
2023-04-10T14:37:19.804Z,17.86
2023-04-10T14:42:23.908Z,17.71
2023-04-10T14:47:27.084Z,17.64
2023-04-10T14:52:30.254Z,17.61
2023-04-10T14:57:33.160Z,17.55
2023-04-10T15:02:36.274Z,17.50
2023-04-10T15:07:39.589Z,17.36
2023-04-10T15:12:43.012Z,17.31
2023-04-10T15:17:46.176Z,17.22
2023-04-10T15:22:49.112Z,17.27
2023-04-10T15:27:52.023Z,17.26
2023-04-10T15:32:55.049Z,17.22
2023-04-10T15:37:58.240Z,17.21
2023-04-10T15:43:01.244Z,17.22
2023-04-10T15:48:05.230Z,17.20
2023-04-10T15:53:08.275Z,17.10
2023-04-10T15:58:11.390Z,17.04
2023-04-10T16:03:14.674Z,16.97
2023-04-10T16:08:18.016Z,16.90
2023-04-10T16:13:21.134Z,16.81
2023-04-10T16:18:24.349Z,16.69
2023-04-10T16:23:27.342Z,16.59
2023-04-10T16:28:30.252Z,16.44
2023-04-10T16:33:33.352Z,16.27
2023-04-10T16:38:36.459Z,16.11
2023-04-10T16:43:39.671Z,15.93
2023-04-10T16:48:42.576Z,15.71
2023-04-10T16:53:45.582Z,15.45
2023-04-10T16:58:48.740Z,15.20
2023-04-10T17:03:52.060Z,14.94
2023-04-10T17:08:55.351Z,14.68
2023-04-10T17:13:58.549Z,14.44
2023-04-10T17:19:01.755Z,14.22
2023-04-10T17:24:04.871Z,13.99
2023-04-10T17:29:07.978Z,13.77
2023-04-10T17:34:11.086Z,13.52
2023-04-10T17:39:14.077Z,13.28
2023-04-10T17:44:17.062Z,13.05
2023-04-10T17:49:21.919Z,12.87
2023-04-10T17:54:25.261Z,12.72
2023-04-10T17:59:31.219Z,12.61
2023-04-10T18:04:34.543Z,12.50
2023-04-10T18:09:37.989Z,12.43
2023-04-10T18:14:42.706Z,12.39
2023-04-10T18:19:45.910Z,12.35
2023-04-10T18:24:49.580Z,12.27
2023-04-10T18:29:57.642Z,12.18
2023-04-10T18:35:00.685Z,12.12
2023-04-10T18:40:15.512Z,12.07
2023-04-10T18:45:20.619Z,11.99
2023-04-10T18:50:23.622Z,11.88
2023-04-10T18:55:26.547Z,11.72
2023-04-10T19:00:29.632Z,11.56
2023-04-10T19:05:32.948Z,11.39
2023-04-10T19:10:37.719Z,11.24
2023-04-10T19:15:42.361Z,11.13
2023-04-10T19:20:48.844Z,11.08
2023-04-10T19:25:54.931Z,10.96
2023-04-10T19:30:58.354Z,10.80
2023-04-10T19:36:01.338Z,10.70
2023-04-10T19:41:13.629Z,10.61
2023-04-10T19:46:18.184Z,10.50
2023-04-10T19:51:21.629Z,10.38
2023-04-10T19:56:25.458Z,10.20
2023-04-10T20:01:28.590Z,10.03
2023-04-10T20:06:32.109Z,9.90
2023-04-10T20:11:35.169Z,9.78
2023-04-10T20:16:39.256Z,9.69
2023-04-10T20:21:42.322Z,9.56
2023-04-10T20:26:45.895Z,9.41
2023-04-10T20:31:49.044Z,9.24
2023-04-10T20:36:52.049Z,9.06
2023-04-10T20:41:55.050Z,8.86
2023-04-10T20:46:57.962Z,8.66
2023-04-10T20:52:01.059Z,8.47
2023-04-10T20:57:06.141Z,8.28
2023-04-10T21:02:09.223Z,8.15
2023-04-10T21:07:12.345Z,8.04
2023-04-10T21:12:15.342Z,7.96
2023-04-10T21:17:19.458Z,7.84
2023-04-10T21:22:22.691Z,7.71
2023-04-10T21:27:25.692Z,7.53
2023-04-10T21:32:30.040Z,7.34
2023-04-10T21:37:33.041Z,7.18
2023-04-10T21:42:39.584Z,7.05
2023-04-10T21:47:42.561Z,6.99
2023-04-10T21:52:45.754Z,6.96
2023-04-10T21:57:48.753Z,6.90
2023-04-10T22:02:52.023Z,6.83
2023-04-10T22:07:55.487Z,6.76
2023-04-10T22:12:58.584Z,6.66
2023-04-10T22:18:01.587Z,6.52
2023-04-10T22:23:05.119Z,6.40
2023-04-10T22:28:08.118Z,6.24
2023-04-10T22:33:12.158Z,6.13
2023-04-10T22:38:15.635Z,6.04
2023-04-10T22:43:18.581Z,5.94
2023-04-10T22:48:21.662Z,5.86
2023-04-10T22:53:24.791Z,5.73
2023-04-10T22:58:27.897Z,5.65
2023-04-10T23:03:30.909Z,5.61
2023-04-10T23:08:33.952Z,5.55
2023-04-10T23:13:36.814Z,5.50
2023-04-10T23:18:39.721Z,5.47
2023-04-10T23:23:42.834Z,5.38
2023-04-10T23:28:45.741Z,5.29
2023-04-10T23:33:48.861Z,5.23
2023-04-10T23:38:52.067Z,5.17
2023-04-10T23:43:55.168Z,5.18
2023-04-10T23:48:58.285Z,5.19
2023-04-10T23:54:01.280Z,5.16
2023-04-10T23:59:04.499Z,5.11
